Time;durP1;ratioP1;P1;durP2;ratioP2;P2;SDS_P1;SDS_P2;PMS_P1;PMS_P2;Temp;Humidity;BMP_temperature;BMP_pressure;BME280_temperature;BME280_humidity;BME280_pressure;Samples;Min_cycle;Max_cycle;Signal;HPM_P1;HPM_P2
2022/08/20 00:01:05;;;;;;;3.58;1.30;;;17.80;75.30;;;;;;5077552;28;20028;-79
2022/08/20 00:03:37;;;;;;;2.95;1.42;;;17.80;76.60;;;;;;5076386;28;20468;-79
2022/08/20 00:06:09;;;;;;;4.43;1.40;;;17.80;75.90;;;;;;5061844;28;20024;-79
2022/08/20 00:08:36;;;;;;;9.27;1.80;;;17.80;75.80;;;;;;5097479;28;20032;-79
2022/08/20 00:11:03;;;;;;;6.22;1.45;;;17.90;75.40;;;;;;5075350;28;20066;-79
2022/08/20 00:13:33;;;;;;;5.28;1.40;;;17.80;75.30;;;;;;5077265;28;20045;-79
2022/08/20 00:15:59;;;;;;;6.57;2.20;;;17.80;75.10;;;;;;5077375;28;20483;-79
2022/08/20 00:18:25;;;;;;;2.70;1.50;;;17.90;75.00;;;;;;5066286;28;20041;-79
2022/08/20 00:21:05;;;;;;;4.88;1.70;;;17.80;75.10;;;;;;5039735;28;20025;-79
2022/08/20 00:23:31;;;;;;;3.55;1.35;;;17.80;75.50;;;;;;5066702;28;20044;-79
2022/08/20 00:25:56;;;;;;;7.78;1.23;;;17.80;76.30;;;;;;5077278;28;20024;-79
2022/08/20 00:28:22;;;;;;;5.85;1.40;;;17.80;76.20;;;;;;5073227;28;20032;-79
2022/08/20 00:30:48;;;;;;;4.45;1.50;;;17.80;75.70;;;;;;5056853;28;20037;-79
2022/08/20 00:33:18;;;;;;;9.07;1.50;;;17.80;75.40;;;;;;5039516;28;20036;-79
2022/08/20 00:35:48;;;;;;;4.07;1.30;;;17.80;75.30;;;;;;5056477;28;20025;-79
2022/08/20 00:38:14;;;;;;;7.43;1.50;;;17.80;75.80;;;;;;5057365;28;20111;-79
2022/08/20 00:40:44;;;;;;;6.18;1.55;;;17.80;76.30;;;;;;5057345;28;20503;-79
2022/08/20 00:44:05;;;;;;;7.70;1.58;;;17.90;76.00;;;;;;5049057;28;20033;-79
2022/08/20 00:46:33;;;;;;;5.32;1.40;;;17.90;76.20;;;;;;5032434;28;20711;-79
2022/08/20 00:49:01;;;;;;;6.90;1.33;;;17.90;76.30;;;;;;5072225;28;20040;-79
2022/08/20 00:51:37;;;;;;;4.65;1.52;;;17.80;76.50;;;;;;5057090;28;20065;-79
2022/08/20 00:54:16;;;;;;;2.35;1.30;;;17.90;75.80;;;;;;5060512;28;20107;-79
2022/08/20 00:56:50;;;;;;;3.35;1.42;;;17.90;76.40;;;;;;5076973;28;20058;-78
2022/08/20 00:59:24;;;;;;;8.60;2.05;;;17.80;77.30;;;;;;5065592;28;20033;-79
2022/08/20 01:01:50;;;;;;;7.47;1.75;;;17.80;77.10;;;;;;5038556;28;20056;-79
2022/08/20 01:04:16;;;;;;;8.52;1.90;;;17.80;77.10;;;;;;5055493;28;20043;-79
2022/08/20 01:06:46;;;;;;;6.63;1.95;;;17.80;76.40;;;;;;5089505;28;20102;-78
2022/08/20 01:09:12;;;;;;;10.43;1.90;;;17.80;76.80;;;;;;5078881;28;20115;-79
2022/08/20 01:11:38;;;;;;;6.28;2.33;;;17.70;76.80;;;;;;5072134;28;20557;-79
2022/08/20 01:14:54;;;;;;;9.10;2.00;;;17.80;76.50;;;;;;5056194;28;20137;-79
2022/08/20 01:16:59;;;;;;;6.07;1.58;;;17.70;77.00;;;;;;5042315;28;20155;-78
2022/08/20 01:19:37;;;;;;;4.13;1.95;;;17.70;77.50;;;;;;5056376;28;20481;-79
2022/08/20 01:23:25;;;;;;;3.90;1.70;;;17.70;77.80;;;;;;5055164;28;20029;-78
2022/08/20 01:24:53;;;;;;;7.68;2.10;;;17.80;77.40;;;;;;5062728;28;20551;-78
2022/08/20 01:27:21;;;;;;;12.82;2.33;;;17.80;76.90;;;;;;5076135;28;20493;-78
2022/08/20 01:29:49;;;;;;;7.78;1.63;;;17.80;76.80;;;;;;5056424;28;20021;-78
2022/08/20 01:32:14;;;;;;;12.07;2.10;;;17.80;77.10;;;;;;5038120;28;20032;-79
2022/08/20 01:34:40;;;;;;;6.18;1.98;;;17.80;77.50;;;;;;5072910;28;20092;-79
2022/08/20 01:37:06;;;;;;;8.52;1.98;;;17.80;77.10;;;;;;5075992;28;20082;-79
2022/08/20 01:39:34;;;;;;;8.07;1.90;;;17.80;77.00;;;;;;5057731;28;20047;-78
2022/08/20 01:42:24;;;;;;;7.07;2.08;;;17.70;77.10;;;;;;5055941;28;20036;-79
2022/08/20 01:44:51;;;;;;;6.75;1.80;;;17.70;77.00;;;;;;5055995;28;20503;-78
2022/08/20 01:47:30;;;;;;;5.85;1.67;;;17.70;77.40;;;;;;5055511;28;20031;-78
2022/08/20 01:50:22;;;;;;;7.95;2.13;;;17.70;77.60;;;;;;5055764;28;20476;-79
2022/08/20 01:52:59;;;;;;;6.63;2.33;;;17.60;77.70;;;;;;5055884;28;20032;-78
2022/08/20 01:55:26;;;;;;;6.15;1.77;;;17.70;77.60;;;;;;5064483;28;20028;-78
2022/08/20 01:57:58;;;;;;;9.20;1.73;;;17.60;77.60;;;;;;5055522;28;20044;-78
2022/08/20 02:00:25;;;;;;;8.73;2.53;;;17.60;78.10;;;;;;5054673;28;20013;-78
2022/08/20 02:02:50;;;;;;;13.80;2.13;;;17.50;77.80;;;;;;5063381;28;20475;-78
2022/08/20 02:05:17;;;;;;;4.97;1.55;;;17.60;77.40;;;;;;5079941;28;20024;-79
2022/08/20 02:07:43;;;;;;;12.30;2.42;;;17.60;77.40;;;;;;5095928;28;20016;-78
2022/08/20 02:10:11;;;;;;;11.77;2.30;;;17.60;77.50;;;;;;5090199;28;20028;-78
2022/08/20 02:12:38;;;;;;;4.15;1.98;;;17.50;77.50;;;;;;5075307;28;20052;-78
2022/08/20 02:15:09;;;;;;;7.55;1.92;;;17.50;77.60;;;;;;5075139;28;20440;-78
2022/08/20 02:17:36;;;;;;;6.50;2.05;;;17.50;77.70;;;;;;5057338;28;20051;-78
2022/08/20 02:20:08;;;;;;;5.13;1.80;;;17.50;77.80;;;;;;5059077;28;20024;-78
2022/08/20 02:22:46;;;;;;;5.32;1.77;;;17.50;77.70;;;;;;5055448;28;20493;-78
2022/08/20 02:25:13;;;;;;;9.30;1.80;;;17.50;77.40;;;;;;5055246;28;20036;-78
2022/08/20 02:27:41;;;;;;;7.43;2.28;;;17.40;77.90;;;;;;5055596;28;20044;-78
2022/08/20 02:30:13;;;;;;;8.63;2.10;;;17.40;77.40;;;;;;5067542;28;20399;-78
2022/08/20 02:32:39;;;;;;;8.45;2.58;;;17.30;77.40;;;;;;5075127;28;20024;-78
2022/08/20 02:35:07;;;;;;;9.15;2.00;;;17.30;77.40;;;;;;5055556;28;20037;-78
2022/08/20 02:37:53;;;;;;;3.20;1.75;;;17.20;77.70;;;;;;5036486;28;20094;-78
2022/08/20 02:40:22;;;;;;;4.38;2.08;;;17.20;77.80;;;;;;5064024;28;20063;-78
2022/08/20 02:42:47;;;;;;;9.18;4.05;;;17.10;77.80;;;;;;5057354;28;20091;-78
2022/08/20 02:45:16;;;;;;;6.32;2.20;;;17.10;77.40;;;;;;5066945;28;20029;-78
2022/08/20 02:47:44;;;;;;;5.00;2.58;;;17.10;77.90;;;;;;5055047;28;20037;-78
2022/08/20 02:50:16;;;;;;;10.02;2.85;;;17.00;77.80;;;;;;5043348;28;20082;-78
2022/08/20 02:52:43;;;;;;;6.22;2.15;;;17.00;77.70;;;;;;5074968;28;20025;-79
2022/08/20 02:55:10;;;;;;;13.93;2.88;;;16.90;77.90;;;;;;5074318;28;20021;-78
2022/08/20 02:57:36;;;;;;;5.53;2.30;;;16.90;78.00;;;;;;5056725;28;20020;-77
2022/08/20 03:00:06;;;;;;;9.82;2.30;;;16.90;77.80;;;;;;5066554;28;20140;-78
2022/08/20 03:02:31;;;;;;;7.38;2.17;;;16.80;77.70;;;;;;5040959;28;20025;-78
2022/08/20 03:04:57;;;;;;;14.82;2.28;;;16.80;78.10;;;;;;5062437;28;20033;-78
2022/08/20 03:07:22;;;;;;;6.80;2.63;;;16.80;77.80;;;;;;5099260;28;20081;-78
2022/08/20 03:09:48;;;;;;;7.40;2.25;;;16.80;77.90;;;;;;5099039;28;20024;-78
2022/08/20 03:12:14;;;;;;;5.60;2.38;;;16.80;77.70;;;;;;5098549;28;20192;-78
2022/08/20 03:14:40;;;;;;;7.68;2.28;;;16.80;77.70;;;;;;5071168;28;20489;-78
2022/08/20 03:17:05;;;;;;;7.85;2.72;;;16.80;77.90;;;;;;5058442;28;20373;-78
2022/08/20 03:19:31;;;;;;;7.63;2.58;;;16.80;77.90;;;;;;5058277;28;20789;-78
2022/08/20 03:21:57;;;;;;;6.28;2.25;;;16.80;77.90;;;;;;5057600;28;20040;-78
2022/08/20 03:24:23;;;;;;;7.63;2.20;;;16.80;78.00;;;;;;5057575;28;20025;-78
2022/08/20 03:26:48;;;;;;;6.15;2.03;;;16.80;77.90;;;;;;5057276;28;20024;-78
2022/08/20 03:29:14;;;;;;;6.00;1.73;;;16.80;77.80;;;;;;5057533;28;20506;-78
2022/08/20 03:31:40;;;;;;;5.38;1.85;;;16.70;77.90;;;;;;5057050;28;20540;-78
2022/08/20 03:34:05;;;;;;;6.88;2.08;;;16.70;78.30;;;;;;5056947;28;20027;-78
2022/08/20 03:36:31;;;;;;;6.50;2.15;;;16.70;78.60;;;;;;5039415;28;20080;-81
2022/08/20 03:38:59;;;;;;;4.53;1.63;;;16.60;79.00;;;;;;5057427;28;20596;-78
2022/08/20 03:41:24;;;;;;;6.10;2.30;;;16.70;79.10;;;;;;5047859;28;20079;-80
2022/08/20 03:43:52;;;;;;;6.38;1.83;;;16.70;78.80;;;;;;5077171;28;20028;-78
2022/08/20 03:46:17;;;;;;;4.70;1.63;;;16.70;78.30;;;;;;5074288;28;20487;-78
2022/08/20 03:48:43;;;;;;;10.93;2.28;;;16.70;78.30;;;;;;5057672;28;20055;-78
2022/08/20 03:51:09;;;;;;;6.38;1.65;;;16.60;78.30;;;;;;5061887;28;20120;-81
2022/08/20 03:53:35;;;;;;;5.43;1.88;;;16.60;78.50;;;;;;5076464;28;20487;-78
2022/08/20 03:56:04;;;;;;;6.68;2.17;;;16.60;78.10;;;;;;5065502;28;20075;-80
2022/08/20 03:58:31;;;;;;;4.28;1.85;;;16.60;77.80;;;;;;5057030;28;20103;-80
2022/08/20 04:00:57;;;;;;;7.60;1.85;;;16.60;77.80;;;;;;5056823;28;20025;-78
2022/08/20 04:03:34;;;;;;;;;;;;;;;;;;;;;
2022/08/20 04:06:00;;;;;;;7.90;1.92;;;16.60;78.30;;;;;;5076974;28;20036;-78
2022/08/20 04:08:30;;;;;;;9.85;2.10;;;16.50;78.30;;;;;;5061070;28;20072;-81
2022/08/20 04:10:56;;;;;;;6.75;2.10;;;16.50;78.10;;;;;;5055256;28;20033;-81
2022/08/20 04:13:24;;;;;;;5.93;2.13;;;16.50;78.00;;;;;;5056669;28;20810;-78
2022/08/20 04:15:53;;;;;;;6.22;2.30;;;16.50;77.80;;;;;;5056197;28;20104;-78
2022/08/20 04:18:23;;;;;;;3.00;1.90;;;16.50;77.50;;;;;;5038940;28;20028;-78
2022/08/20 04:20:50;;;;;;;7.18;1.95;;;16.50;78.00;;;;;;5056539;28;20041;-81
2022/08/20 04:23:16;;;;;;;7.25;2.20;;;16.40;78.10;;;;;;5056438;28;20049;-79
2022/08/20 04:25:56;;;;;;;7.00;2.00;;;16.30;78.20;;;;;;5055971;28;20033;-79
2022/08/20 04:28:26;;;;;;;6.90;2.13;;;16.40;78.20;;;;;;5056322;28;20516;-81
2022/08/20 04:30:54;;;;;;;5.75;1.90;;;16.30;78.10;;;;;;5056426;28;20029;-78
2022/08/20 04:33:20;;;;;;;14.77;2.55;;;16.30;78.20;;;;;;5056188;28;20086;-78
2022/08/20 04:35:46;;;;;;;4.57;1.80;;;16.30;78.10;;;;;;5056197;28;20037;-79
2022/08/20 04:38:14;;;;;;;1.85;1.42;;;16.40;78.00;;;;;;5056184;28;20098;-79
2022/08/20 04:40:52;;;;;;;5.22;2.00;;;16.40;78.30;;;;;;5057703;28;20705;-82
2022/08/20 04:43:21;;;;;;;5.68;2.10;;;16.40;78.10;;;;;;5056179;28;20024;-79
2022/08/20 04:45:47;;;;;;;4.38;2.15;;;16.40;78.00;;;;;;5055132;28;20091;-79
2022/08/20 04:48:13;;;;;;;7.22;2.08;;;16.30;78.00;;;;;;5055932;28;20029;-79
2022/08/20 04:50:41;;;;;;;9.40;1.92;;;16.30;77.90;;;;;;5056083;28;20779;-79
2022/08/20 04:53:09;;;;;;;7.60;2.58;;;16.30;77.90;;;;;;5055830;28;20033;-81
2022/08/20 04:55:41;;;;;;;4.15;1.63;;;16.30;78.10;;;;;;5055805;28;20033;-79
2022/08/20 04:58:18;;;;;;;5.18;1.95;;;16.30;78.50;;;;;;5037970;28;20036;-79
2022/08/20 05:00:58;;;;;;;5.65;2.22;;;16.40;78.60;;;;;;5037836;28;20040;-80
2022/08/20 05:03:24;;;;;;;6.07;1.83;;;16.30;78.60;;;;;;5059463;28;20020;-80
2022/08/20 05:05:51;;;;;;;7.47;1.98;;;16.40;78.60;;;;;;5078452;28;20786;-80
2022/08/20 05:08:19;;;;;;;6.15;1.80;;;16.50;78.60;;;;;;5075839;28;20123;-80
2022/08/20 05:10:45;;;;;;;7.13;2.30;;;16.50;78.70;;;;;;5072429;28;20029;-79
2022/08/20 05:13:11;;;;;;;4.97;1.88;;;16.50;78.70;;;;;;5075567;28;20052;-79
2022/08/20 05:15:37;;;;;;;8.90;2.22;;;16.50;78.60;;;;;;5075393;28;20029;-80
2022/08/20 05:18:06;;;;;;;7.38;2.58;;;16.50;78.70;;;;;;5057448;28;20127;-80
2022/08/20 05:20:38;;;;;;;9.82;1.95;;;16.60;78.60;;;;;;5061862;28;20083;-80
2022/08/20 05:23:06;;;;;;;4.93;2.10;;;16.60;78.50;;;;;;5073842;28;20016;-80
2022/08/20 05:25:33;;;;;;;5.72;2.30;;;16.60;78.60;;;;;;5075014;28;20052;-79
2022/08/20 05:28:02;;;;;;;9.55;2.13;;;16.60;78.90;;;;;;5075196;28;20081;-79
2022/08/20 05:30:32;;;;;;;5.03;1.90;;;16.60;78.40;;;;;;5062166;28;20064;-80
2022/08/20 05:33:02;;;;;;;5.65;1.98;;;16.60;78.60;;;;;;5037366;28;20033;-80
2022/08/20 05:35:29;;;;;;;6.70;1.85;;;16.50;79.40;;;;;;5054996;28;20037;-80
2022/08/20 05:37:56;;;;;;;5.10;2.28;;;16.60;79.00;;;;;;5066730;28;20464;-79
2022/08/20 05:40:23;;;;;;;10.10;1.88;;;16.50;79.10;;;;;;5046366;28;20103;-79
2022/08/20 05:42:50;;;;;;;8.43;2.30;;;16.50;79.00;;;;;;5074078;28;20111;-80
2022/08/20 05:45:16;;;;;;;9.60;2.50;;;16.70;79.10;;;;;;5074899;28;20120;-80
2022/08/20 05:47:43;;;;;;;8.70;2.20;;;16.70;79.10;;;;;;5047517;28;20033;-86
2022/08/20 05:50:10;;;;;;;5.93;2.17;;;16.70;78.90;;;;;;5036473;28;20032;-85
2022/08/20 05:52:36;;;;;;;7.85;2.10;;;16.70;79.00;;;;;;5055283;28;20037;-82
2022/08/20 05:55:04;;;;;;;4.70;2.63;;;16.80;79.20;;;;;;5054496;28;20036;-81
2022/08/20 05:57:29;;;;;;;5.18;2.22;;;16.80;79.20;;;;;;5036531;28;20029;-81
2022/08/20 05:59:55;;;;;;;5.38;1.90;;;16.80;79.10;;;;;;5053653;28;20029;-82
2022/08/20 06:05:05;;;;;;;6.30;2.20;;;16.80;79.10;;;;;;5060809;28;20135;-83
2022/08/20 06:07:31;;;;;;;2.92;1.92;;;16.90;78.50;;;;;;5083519;28;20060;-81
2022/08/20 06:09:56;;;;;;;7.57;2.17;;;17.00;78.50;;;;;;5054021;28;20491;-80
2022/08/20 06:12:22;;;;;;;6.32;2.15;;;17.00;78.50;;;;;;5072524;28;20103;-81
2022/08/20 06:14:47;;;;;;;5.90;2.42;;;17.10;78.50;;;;;;5051970;28;20139;-82
2022/08/20 06:17:16;;;;;;;5.70;2.38;;;17.20;78.80;;;;;;5052849;28;20033;-79
2022/08/20 06:19:43;;;;;;;7.75;2.05;;;17.30;78.80;;;;;;5071877;28;20032;-81
2022/08/20 06:22:09;;;;;;;8.88;2.50;;;17.30;79.00;;;;;;5074238;28;20027;-85
2022/08/20 06:24:34;;;;;;;6.28;2.38;;;17.30;78.50;;;;;;5055837;28;20085;-83
2022/08/20 06:27:03;;;;;;;4.35;2.17;;;17.30;78.60;;;;;;5036269;28;20124;-87
2022/08/20 06:29:32;;;;;;;5.65;2.30;;;17.30;78.70;;;;;;5036090;28;20025;-83
2022/08/20 06:31:58;;;;;;;6.00;1.90;;;17.50;78.70;;;;;;5036069;28;20053;-83
2022/08/20 06:34:27;;;;;;;4.80;1.85;;;17.50;78.80;;;;;;5034943;28;20495;-85
2022/08/20 06:36:53;;;;;;;12.02;3.40;;;17.60;78.90;;;;;;5034907;28;20071;-87
2022/08/20 06:39:19;;;;;;;5.80;2.20;;;17.70;79.00;;;;;;5054277;28;20029;-83
2022/08/20 06:41:45;;;;;;;5.82;2.10;;;17.80;78.40;;;;;;5072158;28;20833;-81
2022/08/20 06:44:10;;;;;;;7.22;2.28;;;17.80;78.40;;;;;;5073266;28;20514;-83
2022/08/20 06:46:37;;;;;;;9.02;2.40;;;17.90;78.50;;;;;;5073559;28;20469;-82
2022/08/20 06:49:04;;;;;;;7.15;2.15;;;17.90;77.60;;;;;;5073788;28;20024;-83
2022/08/20 06:51:30;;;;;;;4.75;2.25;;;18.10;77.60;;;;;;5064781;28;20112;-89
2022/08/20 06:53:56;;;;;;;4.70;2.20;;;18.10;77.60;;;;;;5052802;28;20094;-85
2022/08/20 06:56:22;;;;;;;8.23;2.13;;;18.20;77.60;;;;;;5036077;28;20078;-82
2022/08/20 06:58:48;;;;;;;5.35;2.30;;;18.30;77.10;;;;;;5054944;28;20124;-82
2022/08/20 07:01:14;;;;;;;8.90;1.75;;;18.30;76.90;;;;;;5055679;28;20021;-81
2022/08/20 07:03:41;;;;;;;7.35;2.20;;;18.30;76.30;;;;;;5073792;28;20519;-81
2022/08/20 07:06:10;;;;;;;8.20;2.72;;;18.40;75.60;;;;;;5067345;28;20024;-84
2022/08/20 07:08:35;;;;;;;7.53;2.28;;;18.30;75.80;;;;;;5068977;28;20033;-82
2022/08/20 07:11:01;;;;;;;7.80;2.25;;;18.40;76.10;;;;;;5061300;28;20023;-81
2022/08/20 07:13:28;;;;;;;10.52;2.85;;;18.60;75.80;;;;;;5071327;28;20106;-84
2022/08/20 07:15:54;;;;;;;5.00;2.03;;;18.70;75.90;;;;;;5038444;28;20036;-85
2022/08/20 07:18:21;;;;;;;9.93;2.95;;;18.70;75.10;;;;;;5062634;28;20024;-85
2022/08/20 07:20:48;;;;;;;10.82;3.08;;;18.80;74.90;;;;;;5063332;28;20052;-85
2022/08/20 07:23:13;;;;;;;8.93;2.33;;;18.80;74.80;;;;;;5043135;28;20035;-84
2022/08/20 07:25:41;;;;;;;8.95;2.75;;;18.80;74.90;;;;;;5045567;28;20104;-83
2022/08/20 07:28:29;;;;;;;5.65;2.08;;;18.90;74.90;;;;;;5042011;28;20037;-84
2022/08/20 07:33:40;;;;;;;11.48;2.60;;;19.10;74.30;;;;;;5063064;28;20032;-84
2022/08/20 07:36:07;;;;;;;8.48;1.75;;;19.10;73.90;;;;;;5059862;28;20044;-84
2022/08/20 07:38:34;;;;;;;11.35;2.50;;;19.30;73.30;;;;;;5041931;28;20534;-84
2022/08/20 07:41:03;;;;;;;5.43;2.10;;;19.50;72.90;;;;;;5063365;28;20036;-84
2022/08/20 07:43:31;;;;;;;8.87;2.13;;;20.00;71.60;;;;;;5060595;28;20040;-85
2022/08/20 07:46:00;;;;;;;3.70;1.30;;;20.00;70.90;;;;;;5045792;28;20266;-85
2022/08/20 07:48:28;;;;;;;5.80;1.75;;;20.00;71.00;;;;;;5064987;28;20078;-86
2022/08/20 07:50:58;;;;;;;11.38;2.53;;;20.10;70.70;;;;;;5052165;28;20036;-85
2022/08/20 07:53:25;;;;;;;6.47;1.73;;;20.70;69.80;;;;;;5066127;28;20093;-86
2022/08/20 07:55:51;;;;;;;5.97;1.58;;;22.30;66.80;;;;;;5066741;28;20025;-86
2022/08/20 07:58:19;;;;;;;7.28;1.95;;;24.90;60.30;;;;;;5062140;28;20040;-86
2022/08/20 08:00:45;;;;;;;10.10;1.95;;;26.90;52.50;;;;;;5076093;28;20093;-86
2022/08/20 08:03:12;;;;;;;9.32;1.67;;;28.40;50.00;;;;;;5045313;28;20025;-86
2022/08/20 08:05:39;;;;;;;10.18;1.98;;;29.70;46.80;;;;;;5071497;28;20031;-86
2022/08/20 08:08:09;;;;;;;10.55;2.22;;;30.20;43.70;;;;;;5054663;28;20049;-86
2022/08/20 08:10:36;;;;;;;5.47;1.40;;;30.40;43.40;;;;;;5068253;28;20467;-86
2022/08/20 08:13:05;;;;;;;10.73;1.73;;;30.30;43.00;;;;;;5046915;28;20056;-83
2022/08/20 08:15:32;;;;;;;6.78;1.33;;;29.60;44.30;;;;;;5042113;28;20037;-85
2022/08/20 08:18:06;;;;;;;6.88;1.35;;;28.80;45.30;;;;;;5057324;28;20025;-84
2022/08/20 08:20:39;;;;;;;7.40;1.40;;;28.20;46.60;;;;;;5063072;28;20029;-82
2022/08/20 08:23:06;;;;;;;12.23;2.20;;;27.60;47.90;;;;;;5031826;28;20020;-80
2022/08/20 08:25:32;;;;;;;10.25;1.80;;;27.00;48.40;;;;;;5059852;28;20025;-81
2022/08/20 08:27:59;;;;;;;9.55;1.55;;;26.50;50.20;;;;;;5063578;28;20045;-81
2022/08/20 08:30:27;;;;;;;8.00;1.73;;;26.30;51.00;;;;;;5064478;28;20036;-81
2022/08/20 08:35:38;;;;;;;10.43;1.77;;;26.30;50.10;;;;;;5058894;28;20071;-79
2022/08/20 08:38:04;;;;;;;7.47;1.50;;;26.00;50.40;;;;;;5061052;28;20100;-81
2022/08/20 08:40:32;;;;;;;9.13;1.73;;;26.30;51.10;;;;;;5050908;28;20123;-81
2022/08/20 08:43:02;;;;;;;8.35;1.35;;;26.60;50.50;;;;;;5044832;28;20683;-80
2022/08/20 08:45:42;;;;;;;10.07;1.73;;;26.70;49.40;;;;;;5063578;28;20039;-80
2022/08/20 08:48:18;;;;;;;8.98;1.77;;;26.90;48.20;;;;;;5039467;28;20108;-78
2022/08/20 08:50:48;;;;;;;7.32;1.80;;;26.80;48.00;;;;;;5063873;28;20106;-80
2022/08/20 08:53:25;;;;;;;8.70;1.48;;;26.20;48.90;;;;;;5054321;28;20563;-80
2022/08/20 08:55:51;;;;;;;7.00;1.42;;;25.90;51.20;;;;;;5070118;28;20039;-80
2022/08/20 08:58:16;;;;;;;8.85;1.63;;;25.70;51.20;;;;;;5061451;28;20032;-80
2022/08/20 09:00:44;;;;;;;8.38;1.85;;;25.20;52.30;;;;;;5075593;28;20526;-80
2022/08/20 09:03:18;;;;;;;11.80;1.40;;;25.00;53.20;;;;;;5053929;28;20036;-80
2022/08/20 09:05:48;;;;;;;9.80;2.05;;;25.00;53.10;;;;;;5076372;28;20350;-80
2022/08/20 09:08:18;;;;;;;9.48;1.63;;;25.30;52.60;;;;;;5069946;28;20119;-80
2022/08/20 09:10:44;;;;;;;11.73;1.70;;;25.70;50.50;;;;;;5068738;28;20029;-80
2022/08/20 09:13:10;;;;;;;8.10;1.35;;;26.60;49.40;;;;;;5056337;28;20067;-80
2022/08/20 09:15:36;;;;;;;8.05;1.70;;;27.50;47.00;;;;;;5062323;28;20103;-80
2022/08/20 09:18:02;;;;;;;7.93;1.60;;;28.90;43.70;;;;;;5073020;28;20021;-80
2022/08/20 09:20:30;;;;;;;8.18;1.55;;;29.10;42.60;;;;;;5068451;28;20119;-78
2022/08/20 09:22:56;;;;;;;7.07;1.50;;;28.00;44.10;;;;;;5071674;28;20031;-79
2022/08/20 09:25:22;;;;;;;8.05;1.77;;;28.80;43.30;;;;;;5064060;28;20112;-79
2022/08/20 09:27:48;;;;;;;8.95;1.35;;;27.90;43.60;;;;;;5067351;28;20052;-80
2022/08/20 09:30:15;;;;;;;6.30;1.30;;;27.20;45.50;;;;;;5056260;28;20020;-79
2022/08/20 09:32:41;;;;;;;6.65;1.75;;;26.50;47.00;;;;;;5069917;28;20417;-80
2022/08/20 09:35:07;;;;;;;4.40;1.45;;;28.80;43.60;;;;;;5037150;28;20125;-79
2022/08/20 09:37:33;;;;;;;9.95;1.50;;;30.30;40.30;;;;;;5074601;28;20028;-80
2022/08/20 09:39:59;;;;;;;8.35;1.52;;;31.30;37.10;;;;;;5059572;28;20395;-80
2022/08/20 09:42:31;;;;;;;4.90;1.20;;;32.30;36.50;;;;;;5058101;28;20027;-80
2022/08/20 09:44:58;;;;;;;9.25;1.65;;;32.40;35.60;;;;;;5047863;28;20056;-80
2022/08/20 09:47:24;;;;;;;6.07;1.58;;;32.30;34.70;;;;;;5068011;28;20044;-79
2022/08/20 09:49:51;;;;;;;4.90;1.00;;;33.30;34.00;;;;;;5053208;28;20048;-80
2022/08/20 09:52:23;;;;;;;5.45;1.10;;;34.20;33.40;;;;;;5070406;28;20480;-80
2022/08/20 09:54:51;;;;;;;3.65;1.17;;;33.30;33.70;;;;;;5075437;28;20399;-80
2022/08/20 09:57:17;;;;;;;7.43;1.38;;;33.30;34.00;;;;;;5047149;28;20111;-80
2022/08/20 09:59:56;;;;;;;3.78;1.30;;;32.30;34.80;;;;;;5056467;28;20503;-80
2022/08/20 10:02:22;;;;;;;7.85;1.52;;;32.50;35.60;;;;;;5052234;28;20024;-80
2022/08/20 10:04:48;;;;;;;6.97;1.60;;;33.20;33.90;;;;;;5047110;28;20036;-80
2022/08/20 10:07:13;;;;;;;7.30;1.50;;;33.80;32.90;;;;;;5095546;28;20024;-80
2022/08/20 10:09:39;;;;;;;5.38;1.63;;;34.30;32.60;;;;;;5046819;28;20082;-80
2022/08/20 10:12:05;;;;;;;7.25;1.17;;;34.80;31.70;;;;;;5062081;28;20020;-80
2022/08/20 10:14:31;;;;;;;6.00;1.50;;;35.10;31.30;;;;;;5049320;28;20063;-80
2022/08/20 10:16:58;;;;;;;5.53;1.48;;;35.20;30.30;;;;;;5054608;28;20024;-80
2022/08/20 10:19:24;;;;;;;5.50;1.27;;;35.00;30.30;;;;;;5075331;28;20020;-80
2022/08/20 10:21:52;;;;;;;7.80;1.23;;;34.90;30.50;;;;;;5058985;28;20083;-80
2022/08/20 10:24:18;;;;;;;9.50;1.70;;;34.30;31.40;;;;;;5054786;28;20142;-80
2022/08/20 10:26:44;;;;;;;5.68;1.35;;;34.30;30.60;;;;;;5055268;28;20112;-80
2022/08/20 10:29:10;;;;;;;6.47;1.25;;;33.90;30.30;;;;;;5052258;28;20063;-80
2022/08/20 10:31:35;;;;;;;4.30;1.08;;;33.40;29.90;;;;;;5064517;28;20116;-80
2022/08/20 10:34:01;;;;;;;6.47;1.17;;;32.50;32.70;;;;;;5064392;28;20441;-80
2022/08/20 10:36:27;;;;;;;5.28;1.20;;;31.70;34.50;;;;;;5056450;28;20043;-80
2022/08/20 10:38:53;;;;;;;9.10;1.40;;;30.80;34.00;;;;;;5071015;28;20020;-80
2022/08/20 10:41:18;;;;;;;8.18;1.33;;;30.00;35.20;;;;;;5071462;28;20085;-80
2022/08/20 10:43:44;;;;;;;3.88;1.33;;;29.70;35.50;;;;;;5041447;28;20036;-79
2022/08/20 10:46:10;;;;;;;5.20;1.23;;;29.30;38.10;;;;;;5062082;28;20575;-78
2022/08/20 10:48:37;;;;;;;6.28;1.10;;;28.90;38.70;;;;;;5064388;28;20024;-79
2022/08/20 10:51:03;;;;;;;6.40;1.15;;;28.50;36.40;;;;;;5060616;28;20036;-82
2022/08/20 10:53:29;;;;;;;7.35;1.40;;;28.30;37.40;;;;;;5070699;28;20021;-81
2022/08/20 10:55:58;;;;;;;4.85;1.20;;;28.20;39.70;;;;;;5070502;28;20066;-82
2022/08/20 10:58:25;;;;;;;8.35;1.70;;;28.20;39.30;;;;;;5046742;28;20063;-82
2022/08/20 11:00:51;;;;;;;6.68;1.42;;;28.10;39.60;;;;;;5074708;28;20032;-84
2022/08/20 11:03:17;;;;;;;3.78;1.00;;;28.20;40.70;;;;;;5059696;28;20016;-86
2022/08/20 11:05:42;;;;;;;5.43;1.20;;;28.00;40.80;;;;;;5055667;28;20407;-81
2022/08/20 11:08:08;;;;;;;8.57;1.35;;;28.00;40.70;;;;;;5057016;28;20207;-80
2022/08/20 11:10:35;;;;;;;6.03;1.33;;;28.10;40.00;;;;;;5037970;28;20396;-78
2022/08/20 11:13:02;;;;;;;5.57;1.65;;;28.10;39.60;;;;;;5046238;28;20132;-79
2022/08/20 11:15:28;;;;;;;7.78;1.92;;;28.00;40.30;;;;;;5063971;28;20025;-76
2022/08/20 11:17:55;;;;;;;15.20;4.72;;;27.80;41.40;;;;;;5064564;28;20128;-77
2022/08/20 11:20:24;;;;;;;6.20;1.15;;;27.50;41.60;;;;;;5053877;28;20138;-78
2022/08/20 11:22:51;;;;;;;5.40;1.60;;;27.30;41.50;;;;;;5060734;28;20029;-78
2022/08/20 11:25:17;;;;;;;6.85;1.77;;;27.10;40.70;;;;;;5071773;28;20480;-77
2022/08/20 11:27:47;;;;;;;7.32;1.10;;;27.00;41.90;;;;;;5059246;28;20024;-78
2022/08/20 11:30:18;;;;;;;8.02;1.42;;;27.00;41.70;;;;;;5050867;28;20033;-78
2022/08/20 11:32:44;;;;;;;4.45;1.40;;;27.00;39.50;;;;;;5054529;28;20075;-77
2022/08/20 11:35:10;;;;;;;6.95;1.45;;;26.80;39.80;;;;;;5062313;28;20029;-81
2022/08/20 11:37:35;;;;;;;4.82;1.40;;;26.80;40.30;;;;;;5067032;28;20134;-80
2022/08/20 11:40:01;;;;;;;5.53;1.63;;;26.80;40.70;;;;;;5057611;28;20058;-81
2022/08/20 11:42:27;;;;;;;7.72;1.67;;;26.80;41.40;;;;;;5070730;28;20024;-80
2022/08/20 11:44:52;;;;;;;6.93;1.95;;;26.80;40.50;;;;;;5046222;28;20121;-80
2022/08/20 11:47:27;;;;;;;3.85;1.20;;;26.90;40.40;;;;;;5064900;28;20110;-79
2022/08/20 11:50:11;;;;;;;6.65;1.40;;;26.90;40.70;;;;;;5070753;28;20028;-80
2022/08/20 11:52:37;;;;;;;12.88;1.80;;;26.90;41.40;;;;;;5065662;28;20091;-79
2022/08/20 11:55:04;;;;;;;6.78;1.38;;;26.80;41.20;;;;;;5069469;28;20098;-87
2022/08/20 11:57:32;;;;;;;6.30;1.27;;;26.80;39.70;;;;;;5071297;28;20033;-80
2022/08/20 12:00:00;;;;;;;5.80;1.10;;;26.70;41.40;;;;;;5065014;28;20047;-79
2022/08/20 12:02:26;;;;;;;7.80;1.50;;;26.80;41.50;;;;;;5067276;28;20056;-79
2022/08/20 12:04:52;;;;;;;8.80;1.50;;;26.40;41.10;;;;;;5057320;28;20497;-79
2022/08/20 12:07:21;;;;;;;4.53;1.02;;;26.50;43.30;;;;;;5061214;28;20055;-78
2022/08/20 12:09:47;;;;;;;10.05;1.83;;;26.60;42.00;;;;;;5059323;28;20059;-78
2022/08/20 12:12:13;;;;;;;4.68;1.08;;;26.70;41.40;;;;;;5065649;28;20047;-78
2022/08/20 12:14:40;;;;;;;3.15;1.05;;;26.80;42.00;;;;;;5060951;28;20024;-78
2022/08/20 12:17:20;;;;;;;6.95;1.10;;;26.70;41.40;;;;;;5041098;28;20028;-78
2022/08/20 12:19:46;;;;;;;6.28;1.40;;;26.80;40.80;;;;;;5051080;28;20028;-79
2022/08/20 12:22:12;;;;;;;6.72;1.42;;;26.80;41.30;;;;;;5058749;28;20028;-78
2022/08/20 12:24:38;;;;;;;3.42;1.23;;;26.90;41.60;;;;;;5044775;28;20029;-78
2022/08/20 12:27:16;;;;;;;8.45;1.75;;;26.80;41.10;;;;;;5065194;28;20036;-78
2022/08/20 12:29:44;;;;;;;7.60;1.45;;;26.80;42.10;;;;;;5059452;28;20024;-78
2022/08/20 12:32:10;;;;;;;9.00;1.92;;;26.60;40.30;;;;;;5042642;28;20021;-78
2022/08/20 12:34:38;;;;;;;7.57;1.40;;;26.40;40.40;;;;;;5064127;28;20043;-77
2022/08/20 12:37:08;;;;;;;6.32;1.45;;;26.30;41.20;;;;;;5064066;28;20024;-78
2022/08/20 12:39:36;;;;;;;4.57;1.10;;;26.10;41.30;;;;;;5059282;28;20033;-80
2022/08/20 12:42:02;;;;;;;5.30;1.55;;;26.20;41.80;;;;;;5043529;28;20016;-79
2022/08/20 12:44:31;;;;;;;4.47;1.17;;;26.20;42.10;;;;;;5060544;28;20534;-78
2022/08/20 12:47:08;;;;;;;5.65;1.30;;;26.40;42.30;;;;;;5058284;28;20121;-79
2022/08/20 12:49:35;;;;;;;7.07;1.42;;;26.40;41.20;;;;;;5064367;28;20033;-78
2022/08/20 12:52:00;;;;;;;4.28;1.25;;;26.60;42.00;;;;;;5061722;28;20118;-78
2022/08/20 12:54:26;;;;;;;10.38;1.63;;;26.70;42.70;;;;;;5061457;28;20840;-78
2022/08/20 12:56:52;;;;;;;4.53;1.17;;;26.80;42.40;;;;;;5046695;28;20033;-79
2022/08/20 12:59:18;;;;;;;7.97;1.80;;;26.70;42.20;;;;;;5048803;28;20055;-78
2022/08/20 13:01:44;;;;;;;8.30;1.60;;;26.70;41.90;;;;;;5058947;28;20028;-78